createdAt,value
2023-02-19T00:01:45.961Z,0.70
2023-02-19T00:06:49.119Z,0.80
2023-02-19T00:11:54.840Z,1.10
2023-02-19T00:16:59.608Z,1.10
2023-02-19T00:22:01.263Z,0.80
2023-02-19T00:27:03.033Z,0.80
2023-02-19T00:32:05.195Z,1.20
2023-02-19T00:37:08.206Z,1.20
2023-02-19T00:42:09.980Z,0.80
2023-02-19T00:47:11.688Z,0.80
2023-02-19T00:52:14.403Z,1.10
2023-02-19T00:57:16.250Z,0.90
2023-02-19T01:02:18.331Z,1.00
2023-02-19T01:07:19.998Z,0.70
2023-02-19T01:12:21.654Z,0.60
2023-02-19T01:17:23.469Z,0.80
2023-02-19T01:22:25.154Z,0.60
2023-02-19T01:27:26.848Z,0.60
2023-02-19T01:32:28.500Z,0.80
2023-02-19T01:37:30.404Z,0.80
2023-02-19T01:42:32.174Z,0.70
2023-02-19T01:47:34.100Z,0.70
2023-02-19T01:52:36.991Z,0.80
2023-02-19T01:57:45.070Z,0.90
2023-02-19T02:02:51.362Z,1.10
2023-02-19T02:08:11.651Z,0.70
2023-02-19T02:13:13.423Z,0.60
2023-02-19T02:18:43.733Z,0.80
2023-02-19T02:24:23.040Z,0.60
2023-02-19T02:29:59.006Z,0.60
2023-02-19T02:35:13.458Z,0.60
2023-02-19T02:40:17.224Z,0.70
2023-02-19T02:45:37.892Z,0.70
2023-02-19T02:50:58.805Z,0.80
2023-02-19T02:56:02.616Z,1.00
2023-02-19T03:01:33.740Z,1.00
2023-02-19T03:06:37.992Z,0.70
2023-02-19T03:12:02.249Z,0.70
2023-02-19T03:17:48.647Z,0.70
2023-02-19T03:22:52.920Z,0.70
2023-02-19T03:27:59.164Z,0.50
2023-02-19T03:33:09.581Z,0.80
2023-02-19T03:38:19.677Z,0.90
2023-02-19T03:43:33.949Z,1.10
2023-02-19T03:54:16.055Z,1.00
2023-02-19T03:59:32.446Z,1.10
2023-02-19T04:04:39.347Z,0.90
2023-02-19T04:09:46.061Z,0.80
2023-02-19T04:15:10.044Z,0.90
2023-02-19T04:20:13.780Z,0.80
2023-02-19T04:25:15.683Z,0.90
2023-02-19T04:30:17.714Z,0.80
2023-02-19T04:35:19.507Z,0.90
2023-02-19T04:40:21.351Z,0.90
2023-02-19T04:45:23.078Z,0.80
2023-02-19T04:50:25.511Z,0.80
2023-02-19T04:55:27.293Z,0.60
2023-02-19T05:00:28.988Z,0.70
2023-02-19T05:05:30.704Z,0.50
2023-02-19T05:10:33.723Z,0.60
2023-02-19T05:15:35.605Z,0.50
2023-02-19T05:20:37.608Z,1.00
2023-02-19T05:25:39.244Z,0.80
2023-02-19T05:30:40.913Z,0.90
2023-02-19T05:35:49.533Z,0.80
2023-02-19T05:40:51.334Z,0.80
2023-02-19T05:45:52.987Z,1.10
2023-02-19T05:50:54.762Z,1.10
2023-02-19T05:55:56.724Z,1.20
2023-02-19T06:00:58.597Z,1.10
2023-02-19T06:06:00.385Z,1.20
2023-02-19T06:11:02.039Z,1.60
2023-02-19T06:16:05.065Z,1.70
2023-02-19T06:21:10.351Z,1.60
2023-02-19T06:26:13.294Z,1.90
2023-02-19T06:31:17.531Z,1.70
2023-02-19T06:36:21.189Z,1.50
2023-02-19T06:41:22.850Z,2.00
2023-02-19T06:46:24.600Z,1.90
2023-02-19T06:51:28.874Z,1.80
2023-02-19T06:56:37.510Z,1.60
2023-02-19T07:01:40.164Z,1.50
2023-02-19T07:06:41.934Z,1.30
2023-02-19T07:11:43.613Z,1.60
2023-02-19T07:16:47.303Z,1.60
2023-02-19T07:21:49.127Z,1.70
2023-02-19T07:26:50.934Z,1.40
2023-02-19T07:31:52.713Z,1.10
2023-02-19T07:36:54.599Z,1.50
2023-02-19T07:41:57.782Z,1.30
2023-02-19T07:47:02.330Z,1.00
2023-02-19T07:52:04.143Z,0.90
2023-02-19T07:57:05.895Z,1.40
2023-02-19T08:02:37.278Z,1.20
2023-02-19T08:07:38.994Z,1.20
2023-02-19T08:13:10.358Z,1.00
2023-02-19T08:18:13.938Z,1.30
2023-02-19T08:23:15.996Z,1.10
2023-02-19T08:28:18.951Z,1.30
2023-02-19T08:33:21.386Z,1.20
2023-02-19T08:38:23.292Z,0.80
2023-02-19T08:43:25.096Z,1.30
2023-02-19T08:48:26.817Z,1.30
2023-02-19T08:53:28.535Z,1.40
2023-02-19T08:58:30.200Z,1.20
2023-02-19T09:03:31.934Z,1.00
2023-02-19T09:08:33.617Z,0.90
2023-02-19T09:13:35.381Z,0.90
2023-02-19T09:18:37.100Z,0.70
2023-02-19T09:23:38.826Z,0.70
2023-02-19T09:28:41.977Z,0.60
2023-02-19T09:33:48.165Z,0.70
2023-02-19T09:38:49.836Z,0.80
2023-02-19T09:43:51.946Z,1.00
2023-02-19T09:48:58.924Z,1.60
2023-02-19T09:54:01.670Z,1.00
2023-02-19T09:59:04.246Z,0.90
2023-02-19T10:04:05.902Z,0.50
2023-02-19T10:09:21.782Z,0.50
2023-02-19T10:14:29.951Z,0.50
2023-02-19T10:19:33.527Z,0.70
2023-02-19T10:24:37.532Z,0.60
2023-02-19T10:29:40.621Z,0.60
2023-02-19T10:34:42.358Z,0.40
2023-02-19T10:39:47.103Z,0.50
2023-02-19T10:44:56.355Z,0.60
2023-02-19T10:50:02.108Z,0.70
2023-02-19T10:55:36.742Z,0.60
2023-02-19T11:00:39.579Z,0.40
2023-02-19T11:05:53.127Z,0.70
2023-02-19T11:10:55.176Z,0.50
2023-02-19T11:15:57.388Z,0.50
2023-02-19T11:21:04.229Z,0.60
2023-02-19T11:26:19.731Z,0.40
2023-02-19T11:31:35.467Z,0.60
2023-02-19T11:36:37.859Z,0.70
2023-02-19T11:42:01.660Z,0.30
2023-02-19T11:47:28.185Z,0.40
2023-02-19T11:52:42.346Z,0.50
2023-02-19T11:58:35.072Z,0.80
2023-02-19T12:03:48.778Z,0.30
2023-02-19T12:09:22.447Z,0.50
2023-02-19T12:14:41.663Z,0.50
2023-02-19T12:20:08.300Z,0.70
2023-02-19T12:25:23.802Z,0.60
2023-02-19T12:30:44.306Z,0.70
2023-02-19T12:36:23.752Z,0.50
2023-02-19T12:41:34.964Z,0.40
2023-02-19T12:46:56.729Z,0.60
2023-02-19T12:52:12.980Z,0.60
2023-02-19T12:57:32.776Z,0.60
2023-02-19T13:02:46.251Z,0.60
2023-02-19T13:07:52.903Z,0.40
2023-02-19T13:12:59.285Z,0.60
2023-02-19T13:18:05.413Z,0.50
2023-02-19T13:23:36.330Z,0.60
2023-02-19T13:28:52.794Z,0.60
2023-02-19T13:34:31.794Z,0.60
2023-02-19T13:39:34.282Z,0.80
2023-02-19T13:44:40.690Z,0.70
2023-02-19T13:49:42.469Z,0.80
2023-02-19T13:54:44.298Z,0.70
2023-02-19T13:59:46.443Z,0.70
2023-02-19T14:04:55.947Z,0.70
2023-02-19T14:09:58.599Z,1.00
2023-02-19T14:15:39.202Z,0.80
2023-02-19T14:20:44.966Z,0.90
2023-02-19T14:25:52.647Z,0.70
2023-02-19T14:31:31.419Z,0.60
2023-02-19T14:36:40.645Z,0.80
2023-02-19T14:41:46.786Z,0.70
2023-02-19T14:47:06.047Z,1.30
2023-02-19T14:52:15.614Z,0.60
2023-02-19T14:57:22.936Z,0.60
2023-02-19T15:02:27.128Z,0.90
2023-02-19T15:07:33.225Z,1.20
2023-02-19T15:12:44.301Z,1.00
2023-02-19T15:17:46.223Z,1.00
2023-02-19T15:22:48.035Z,0.90
2023-02-19T15:27:50.917Z,0.70
2023-02-19T15:32:59.895Z,0.50
2023-02-19T15:38:01.579Z,1.00
2023-02-19T15:43:03.643Z,0.90
2023-02-19T15:48:14.608Z,0.60
2023-02-19T15:53:22.291Z,0.90
2023-02-19T15:58:37.046Z,0.80
2023-02-19T16:03:39.638Z,0.80
2023-02-19T16:09:03.168Z,0.80
2023-02-19T16:14:32.038Z,1.00
2023-02-19T16:19:43.594Z,0.90
2023-02-19T16:24:48.788Z,0.90
2023-02-19T16:29:51.700Z,1.30
2023-02-19T16:34:53.614Z,1.10
2023-02-19T16:40:07.218Z,1.20
2023-02-19T16:45:09.124Z,1.20
2023-02-19T16:50:23.335Z,0.90
2023-02-19T16:55:26.246Z,1.10
2023-02-19T17:00:30.174Z,1.30
2023-02-19T17:05:32.554Z,1.30
2023-02-19T17:10:34.193Z,1.20
2023-02-19T17:15:35.923Z,1.40
2023-02-19T17:20:38.731Z,1.70
2023-02-19T17:25:40.578Z,1.20
2023-02-19T17:30:42.610Z,1.70
2023-02-19T17:35:45.020Z,1.60
2023-02-19T17:40:46.680Z,1.70
2023-02-19T17:45:48.816Z,1.10
2023-02-19T17:50:52.366Z,1.60
2023-02-19T17:55:54.086Z,1.20
2023-02-19T18:00:56.095Z,1.50
2023-02-19T18:05:57.852Z,1.60
2023-02-19T18:11:00.292Z,1.20
2023-02-19T18:16:02.222Z,1.80
2023-02-19T18:21:07.415Z,1.50
2023-02-19T18:26:10.868Z,1.80
2023-02-19T18:31:13.124Z,1.50
2023-02-19T18:36:15.087Z,2.10
2023-02-19T18:41:20.230Z,2.20
2023-02-19T18:46:22.324Z,2.60
2023-02-19T18:51:24.064Z,2.50
2023-02-19T18:56:25.804Z,3.20
2023-02-19T19:01:27.592Z,4.20
2023-02-19T19:16:35.499Z,3.30
2023-02-19T19:21:37.372Z,3.60
2023-02-19T19:26:45.180Z,6.40
2023-02-19T19:31:47.047Z,7.00
2023-02-19T19:36:49.051Z,4.00
2023-02-19T19:41:55.465Z,2.30
2023-02-19T19:46:57.480Z,3.20
2023-02-19T19:52:01.355Z,3.10
2023-02-19T19:57:03.314Z,3.00
2023-02-19T20:02:06.950Z,2.60
2023-02-19T20:07:08.722Z,1.60
2023-02-19T20:12:12.227Z,1.70
2023-02-19T20:17:14.954Z,2.60
2023-02-19T20:22:16.640Z,2.10
2023-02-19T20:27:19.599Z,1.90
2023-02-19T20:32:21.594Z,1.90
2023-02-19T20:37:23.303Z,2.40
2023-02-19T20:42:24.963Z,2.20
2023-02-19T20:47:28.029Z,2.30
2023-02-19T20:52:29.782Z,2.10
2023-02-19T20:57:31.454Z,1.70
2023-02-19T21:02:33.293Z,1.90
2023-02-19T21:07:35.329Z,2.20
2023-02-19T21:12:37.329Z,2.60
2023-02-19T21:17:39.090Z,1.90
2023-02-19T21:22:40.812Z,2.20
2023-02-19T21:27:42.491Z,1.50
2023-02-19T21:32:44.203Z,2.30
2023-02-19T21:37:46.304Z,2.10
2023-02-19T21:42:48.015Z,1.70
2023-02-19T21:47:52.202Z,1.80
2023-02-19T21:52:53.952Z,2.50
2023-02-19T21:57:55.693Z,2.60
2023-02-19T22:02:57.456Z,2.30
2023-02-19T22:08:00.047Z,2.10
2023-02-19T22:13:09.138Z,1.40
2023-02-19T22:18:11.031Z,2.80
2023-02-19T22:23:12.719Z,2.40
2023-02-19T22:28:14.446Z,1.50
2023-02-19T22:33:16.130Z,1.80
2023-02-19T22:38:17.850Z,2.30
2023-02-19T22:43:19.616Z,1.70
2023-02-19T22:48:29.534Z,2.20
2023-02-19T22:53:31.920Z,2.20
2023-02-19T22:58:33.670Z,2.30
2023-02-19T23:03:35.462Z,3.30
2023-02-19T23:08:37.106Z,2.90
2023-02-19T23:13:42.332Z,2.20
2023-02-19T23:18:43.992Z,1.50
2023-02-19T23:23:46.619Z,2.00
2023-02-19T23:28:48.778Z,3.90
2023-02-19T23:33:50.436Z,2.80
2023-02-19T23:38:52.174Z,2.20
2023-02-19T23:43:54.236Z,2.30
2023-02-19T23:48:55.884Z,2.40
2023-02-19T23:53:57.584Z,2.20
2023-02-19T23:58:59.689Z,1.30
